Latest Coastal Weather Observations for Troughton Island

IDD60701

Issued at 8:31 pm CST Friday 26 May 2017 (issued every 10 minutes, with the page automatically refreshed every 10 minutes)

About coastal observations | Map of coastal stations | Coastal observations for NT | Marine services | Other Formats
Station Details ID: 001007 Name: TROUGHTON ISLAND Lat: -13.75 Lon: 126.15 Height: 6.0 m
Data from the previous 72 hours. | See also: Recent months at Troughton Island
Date/Time
CST
Temp
°C
Wind Pressure Rain since
9am
mm
Weather Cloud Vis
km
Sea
Height
m
Swell
Dir  Spd
kts
Gust
kts
hPa Trend Height
m
Period
s
Dir
26/08:30pm 28.2 ENE 15 17 1012.7 - 0.0 - - - - - - -
26/08:00pm 28.3 ENE 17 20 1012.4 - 0.0 - - - - - - -
26/07:30pm 28.3 ENE 17 20 1012.0 - 0.0 - - - - - - -
26/07:00pm 28.4 ENE 16 19 1011.8 - 0.0 - - - - - - -
26/06:30pm 28.5 ENE 15 18 1011.6 - 0.0 - - - - - - -
26/06:00pm 28.7 ENE 16 20 1011.5 - 0.0 - - - - - - -
26/05:30pm 29.0 ENE 16 19 1011.3 - 0.0 - - - - - - -
26/05:00pm 29.4 ENE 17 22 1011.0 - 0.0 - - - - - - -
26/04:30pm 29.6 ENE 18 22 1011.0 - 0.0 - - - - - - -
26/04:00pm 29.5 E 19 22 1010.9 - 0.0 - - - - - - -
26/03:30pm 29.8 E 19 23 1011.2 - 0.0 - - - - - - -
26/03:00pm 30.1 E 19 24 1011.2 - 0.0 - - - - - - -
26/02:30pm 30.4 ENE 18 23 1011.5 - 0.0 - - - - - - -
26/02:00pm 30.8 E 15 19 1012.0 - 0.0 - - - - - - -
26/01:30pm 30.4 E 12 14 1012.4 - 0.0 - - - - - - -
26/01:00pm 31.4 E 11 14 1012.7 - 0.0 - - - - - - -
26/12:30pm 30.6 E 12 14 1013.0 - 0.0 - - - - - - -
26/12:00pm 30.8 ESE 13 15 1013.3 - 0.0 - - - - - - -
26/11:30am 30.1 ESE 14 17 1013.4 - 0.0 - - - - - - -
26/11:00am 30.2 E 15 19 1013.6 - 0.0 - - - - - - -
26/10:30am 29.5 ESE 15 18 1013.8 - 0.0 - - - - - - -
26/10:00am 29.4 ESE 13 16 1013.8 - 0.0 - - - - - - -
26/09:30am 29.4 ESE 11 14 1013.6 - 0.0 - - - - - - -
26/09:00am 28.8 SE 7 9 1013.4 - 0.0 - - - - - - -
26/08:30am 28.1 SSE 7 9 1013.2 - 0.0 - - - - - - -
26/08:00am 27.1 SSE 6 8 1012.9 - 0.0 - - - - - - -
26/07:30am 25.7 S 6 7 1012.6 - 0.0 - - - - - - -
26/07:00am 26.0 SSE 7 8 1012.3 - 0.0 - - - - - - -
26/06:30am 26.2 SSE 9 11 1011.9 - 0.0 - - - - - - -
26/06:00am 26.1 SSE 8 10 1011.7 - 0.0 - - - - - - -
26/05:30am 26.1 SSE 7 8 1011.7 - 0.0 - - - - - - -
26/05:00am 26.4 SSE 7 8 1011.6 - 0.0 - - - - - - -
26/04:30am 26.4 SSE 7 8 1011.7 - 0.0 - - - - - - -
26/04:00am 26.3 SE 6 7 1011.9 - 0.0 - - - - - - -
26/03:30am 26.4 SE 6 7 1012.0 - 0.0 - - - - - - -
26/03:00am 27.3 ENE 6 6 1012.1 - 0.0 - - - - - - -
26/02:30am 27.4 ENE 6 7 1012.4 - 0.0 - - - - - - -
26/02:00am 27.4 NE 6 7 1012.7 - 0.0 - - - - - - -
26/01:30am 27.6 NE 7 8 1012.8 - 0.0 - - - - - - -
26/01:00am 27.7 NE 9 10 1012.9 - 0.0 - - - - - - -
26/12:30am 27.7 NE 9 11 1013.1 - 0.0 - - - - - - -
26/12:00am 27.7 NE 10 11 1013.2 - 0.0 - - - - - - -
 
Date/Time
CST
Temp
°C
Wind Pressure Rain since
9am
mm
Weather Cloud Vis
km
Sea
Height
m
Swell
Dir  Spd
kts
Gust
kts
hPa Trend Height
m
Period
s
Dir
25/11:30pm 27.9 NE 10 12 1013.5 - 0.0 - - - - - - -
25/11:00pm 27.9 NE 11 14 1013.6 - 0.0 - - - - - - -
25/10:30pm 27.9 ENE 12 15 1013.4 - 0.0 - - - - - - -
25/10:00pm 28.1 ENE 13 15 1013.6 - 0.0 - - - - - - -
25/09:30pm 28.0 ENE 13 15 1013.5 - 0.0 - - - - - - -
25/09:00pm 28.1 E 14 16 1013.2 - 0.0 - - - - - - -
25/08:30pm 28.1 ENE 16 19 1013.0 - 0.0 - - - - - - -
25/08:00pm 28.3 ENE 19 21 1012.6 - 0.0 - - - - - - -
25/07:30pm 28.4 ENE 18 22 1012.4 - 0.0 - - - - - - -
25/07:00pm 28.6 ENE 21 25 1012.0 - 0.0 - - - - - - -
25/06:30pm 28.6 ENE 22 27 1011.5 - 0.0 - - - - - - -
25/06:00pm 29.0 ENE 21 26 1011.3 - 0.0 - - - - - - -
25/05:30pm 29.3 ENE 20 24 1011.0 - 0.0 - - - - - - -
25/05:00pm 29.6 ENE 20 25 1010.7 - 0.0 - - - - - - -
25/04:30pm 30.0 ENE 21 26 1010.5 - 0.0 - - - - - - -
25/04:00pm 30.6 ENE 18 21 1010.6 - 0.0 - - - - - - -
25/03:30pm 30.9 ENE 17 21 1010.7 - 0.0 - - - - - - -
25/03:00pm 31.1 ENE 15 19 1011.0 - 0.0 - - - - - - -
25/02:30pm 31.0 ENE 16 20 1011.5 - 0.0 - - - - - - -
25/02:00pm 30.9 E 16 19 1012.1 - 0.0 - - - - - - -
25/01:30pm 30.6 E 10 13 1012.4 - 0.0 - - - - - - -
25/01:00pm 30.3 E 10 13 1012.8 - 0.0 - - - - - - -
25/12:30pm 30.7 E 11 14 1013.1 - 0.0 - - - - - - -
25/12:00pm 31.4 E 10 13 1013.5 - 0.0 - - - - - - -
25/11:30am 30.2 ESE 11 14 1013.8 - 0.0 - - - - - - -
25/11:00am 30.2 ESE 12 14 1014.0 - 0.0 - - - - - - -
25/10:30am 30.6 ESE 12 14 1013.9 - 0.0 - - - - - - -
25/10:00am 30.3 ESE 11 13 1013.8 - 0.0 - - - - - - -
25/09:30am 29.3 SE 9 11 1013.5 - 0.0 - - - - - - -
25/09:00am 29.2 SE 8 9 1013.0 - 0.0 - - - - - - -
25/08:30am 28.7 SSE 7 8 1012.7 - 0.0 - - - - - - -
25/08:00am 27.6 SSE 7 9 1012.6 - 0.0 - - - - - - -
25/07:30am 26.5 SSE 7 8 1012.4 - 0.0 - - - - - - -
25/07:00am 25.9 SSE 7 8 1012.2 - 0.0 - - - - - - -
25/06:30am 26.2 S 7 7 1012.1 - 0.0 - - - - - - -
25/06:00am 26.7 S 7 7 1012.0 - 0.0 - - - - - - -
25/05:30am 26.9 S 7 9 1011.9 - 0.0 - - - - - - -
25/05:00am 26.8 S 8 8 1011.9 - 0.0 - - - - - - -
25/04:30am 26.4 SSE 7 7 1012.0 - 0.0 - - - - - - -
25/04:00am 26.5 SSE 6 6 1012.1 - 0.0 - - - - - - -
25/03:30am 26.9 SE 5 6 1012.1 - 0.0 - - - - - - -
25/03:00am 27.3 ESE 5 6 1012.2 - 0.0 - - - - - - -
25/02:30am 27.3 ESE 5 6 1012.4 - 0.0 - - - - - - -
25/02:00am 27.3 E 5 7 1012.7 - 0.0 - - - - - - -
25/01:30am 27.7 ENE 6 7 1012.8 - 0.0 - - - - - - -
25/01:00am 27.9 ENE 7 8 1012.8 - 0.0 - - - - - - -
25/12:30am 28.0 NE 7 8 1013.0 - 0.0 - - - - - - -
25/12:00am 28.0 NE 7 9 1013.2 - 0.0 - - - - - - -
 
Date/Time
CST
Temp
°C
Wind Pressure Rain since
9am
mm
Weather Cloud Vis
km
Sea
Height
m
Swell
Dir  Spd
kts
Gust
kts
hPa Trend Height
m
Period
s
Dir
24/11:30pm 28.2 ENE 9 11 1013.1 - 0.0 - - - - - - -
24/11:00pm 28.2 ENE 9 11 1013.0 - 0.0 - - - - - - -
24/10:30pm 28.2 ENE 11 13 1013.0 - 0.0 - - - - - - -
24/10:00pm 28.2 ENE 12 14 1013.2 - 0.0 - - - - - - -
24/09:30pm 28.4 ENE 13 15 1013.1 - 0.0 - - - - - - -
24/09:00pm 28.4 ENE 13 16 1012.9 - 0.0 - - - - - - -
24/08:30pm 28.4 ENE 15 18 1012.6 - 0.0 - - - - - - -
24/08:00pm 28.4 ENE 15 18 1012.2 - 0.0 - - - - - - -
24/07:30pm 28.6 ENE 15 18 1011.8 - 0.0 - - - - - - -
24/07:00pm 28.6 ENE 15 18 1011.4 - 0.0 - - - - - - -
24/06:30pm 28.8 NE 14 17 1011.2 - 0.0 - - - - - - -
24/06:00pm 29.4 NE 14 18 1010.8 - 0.0 - - - - - - -
24/05:30pm 29.9 NE 14 18 1010.6 - 0.0 - - - - - - -
24/05:00pm 30.5 NE 15 18 1010.4 - 0.0 - - - - - - -
24/04:30pm 30.7 NE 15 18 1010.1 - 0.0 - - - - - - -
24/04:00pm 30.7 NE 15 19 1010.2 - 0.0 - - - - - - -
24/03:30pm 31.2 NE 15 19 1010.4 - 0.0 - - - - - - -
24/03:00pm 31.6 ENE 13 16 1010.6 - 0.0 - - - - - - -
24/02:30pm 30.9 NE 8 11 1011.1 - 0.0 - - - - - - -
24/02:00pm 31.0 ENE 8 10 1011.6 - 0.0 - - - - - - -
24/01:30pm 30.3 ENE 8 10 1012.1 - 0.0 - - - - - - -
24/01:00pm 30.5 E 11 13 1012.5 - 0.0 - - - - - - -
24/12:30pm 30.8 ENE 11 14 1013.0 - 0.0 - - - - - - -
24/12:00pm 30.8 E 10 13 1013.2 - 0.0 - - - - - - -
24/11:30am 30.6 E 9 12 1013.5 - 0.0 - - - - - - -
24/11:00am 30.3 ESE 7 10 1013.7 - 0.0 - - - - - - -
24/10:30am 29.7 ESE 7 9 1013.7 - 0.0 - - - - - - -
24/10:00am 29.7 SE 8 10 1013.7 - 0.0 - - - - - - -
24/09:30am 29.0 SE 9 11 1013.6 - 0.0 - - - - - - -
24/09:00am 28.9 SE 7 10 1013.4 - 0.0 - - - - - - -
24/08:30am 28.3 SSE 7 9 1013.1 - 0.0 - - - - - - -
24/08:00am 27.4 SSE 8 9 1012.9 - 0.0 - - - - - - -
24/07:30am 26.9 S 8 9 1012.5 - 0.0 - - - - - - -
24/07:00am 26.8 S 8 9 1012.1 - 0.0 - - - - - - -
24/06:30am 26.8 S 8 9 1011.8 - 0.0 - - - - - - -
24/06:00am 26.6 SSE 7 8 1011.5 - 0.0 - - - - - - -
24/05:30am 27.0 SSE 9 10 1011.6 - 0.0 - - - - - - -
24/05:00am 26.9 SSE 8 10 1011.4 - 0.0 - - - - - - -
24/04:30am 26.7 SSE 8 10 1011.6 - 0.0 - - - - - - -
24/04:00am 26.6 S 7 8 1011.8 - 0.0 - - - - - - -
24/03:30am 26.8 SSE 7 8 1012.0 - 0.0 - - - - - - -
24/03:00am 26.9 SE 6 7 1012.2 - 0.0 - - - - - - -
24/02:30am 26.9 ESE 5 6 1012.4 - 0.0 - - - - - - -
24/02:00am 27.3 ESE 5 5 1012.7 - 0.0 - - - - - - -
24/01:30am 27.7 ENE 4 5 1013.1 - 0.0 - - - - - - -
24/01:00am 27.5 NE 4 6 1013.3 - 0.0 - - - - - - -
24/12:30am 28.0 NE 5 7 1013.4 - 0.0 - - - - - - -
24/12:00am 28.2 NE 8 10 1013.3 - 0.0 - - - - - - -
 
Date/Time
CST
Temp
°C
Wind Pressure Rain since
9am
mm
Weather Cloud Vis
km
Sea
Height
m
Swell
Dir  Spd
kts
Gust
kts
hPa Trend Height
m
Period
s
Dir
23/11:30pm 28.3 NE 8 11 1013.5 - 0.0 - - - - - - -
23/11:00pm 28.3 NE 9 11 1013.5 - 0.0 - - - - - - -
23/10:30pm 28.3 ENE 10 11 1013.6 - 0.0 - - - - - - -

Other Formats:

Comma delimited format used in spreadsheet applications
http://www.bom.gov.au/fwo/IDD60701/IDD60701.94102.axf

JavaScript Object Notation format (JSON) in row-major order
http://www.bom.gov.au/fwo/IDD60701/IDD60701.94102.json